createdAt,value
2023-02-15T00:05:30.278Z,1.99
2023-02-15T00:11:53.212Z,1.93
2023-02-15T00:18:13.292Z,1.86
2023-02-15T00:24:36.251Z,1.84
2023-02-15T00:30:56.328Z,1.81
2023-02-15T00:37:19.277Z,1.76
2023-02-15T00:43:39.338Z,1.74
2023-02-15T00:50:02.153Z,1.7
2023-02-15T00:56:22.320Z,1.66
2023-02-15T01:02:45.171Z,1.67
2023-02-15T01:09:05.201Z,1.68
2023-02-15T01:15:28.250Z,1.68
2023-02-15T01:21:48.182Z,1.62
2023-02-15T01:28:11.205Z,1.57
2023-02-15T01:34:31.200Z,1.5
2023-02-15T01:40:54.190Z,1.45
2023-02-15T01:47:14.190Z,1.41
2023-02-15T01:53:37.215Z,1.36
2023-02-15T01:59:57.208Z,1.29
2023-02-15T02:06:20.218Z,1.24
2023-02-15T02:12:40.368Z,1.21
2023-02-15T02:19:03.216Z,1.17
2023-02-15T02:25:23.300Z,1.11
2023-02-15T02:31:46.346Z,1.09
2023-02-15T02:38:06.220Z,1.08
2023-02-15T02:44:29.157Z,1.08
2023-02-15T02:50:49.347Z,1.06
2023-02-15T02:57:12.251Z,1.04
2023-02-15T03:03:32.189Z,1.03
2023-02-15T03:09:55.196Z,1.01
2023-02-15T03:16:15.194Z,0.99
2023-02-15T03:22:38.249Z,0.95
2023-02-15T03:28:58.283Z,0.91
2023-02-15T03:35:21.169Z,0.89
2023-02-15T03:41:41.190Z,0.89
2023-02-15T03:48:04.201Z,0.87
2023-02-15T03:54:24.272Z,0.84
2023-02-15T04:00:47.291Z,0.81
2023-02-15T04:07:07.380Z,0.76
2023-02-15T04:23:54.095Z,0.7
2023-02-15T04:30:14.237Z,0.68
2023-02-15T04:36:37.304Z,0.69
2023-02-15T04:42:57.182Z,0.74
2023-02-15T04:49:20.177Z,0.75
2023-02-15T04:55:40.152Z,0.74
2023-02-15T05:02:03.234Z,0.68
2023-02-15T05:08:23.329Z,0.65
2023-02-15T05:14:46.243Z,0.65
2023-02-15T05:21:07.531Z,0.64
2023-02-15T05:27:30.251Z,0.62
2023-02-15T05:33:50.233Z,0.61
2023-02-15T05:40:13.225Z,0.59
2023-02-15T05:46:33.208Z,0.59
2023-02-15T05:52:56.224Z,0.55
2023-02-15T05:59:16.186Z,0.54
2023-02-15T06:05:39.275Z,0.53
2023-02-15T06:11:59.322Z,0.55
2023-02-15T06:18:22.231Z,0.52
2023-02-15T06:24:42.269Z,0.47
2023-02-15T06:31:05.369Z,0.44
2023-02-15T06:37:25.210Z,0.46
2023-02-15T06:43:48.213Z,0.46
2023-02-15T06:50:08.175Z,0.46
2023-02-15T06:56:31.206Z,0.47
2023-02-15T07:02:51.163Z,0.5
2023-02-15T07:09:14.169Z,0.53
2023-02-15T07:15:34.219Z,0.58
2023-02-15T07:21:57.289Z,0.62
2023-02-15T07:28:17.214Z,0.66
2023-02-15T07:34:40.184Z,0.71
2023-02-15T07:41:00.230Z,0.8
2023-02-15T07:47:23.292Z,0.9
2023-02-15T07:53:43.239Z,1.03
2023-02-15T08:00:06.230Z,1.16
2023-02-15T08:06:26.151Z,1.29
2023-02-15T08:12:49.178Z,1.46
2023-02-15T08:19:09.180Z,1.64
2023-02-15T08:25:32.182Z,1.89
2023-02-15T08:31:52.325Z,2.12
2023-02-15T08:38:15.197Z,2.36
2023-02-15T08:44:35.179Z,2.55
2023-02-15T08:50:58.253Z,2.75
2023-02-15T08:57:18.172Z,2.94
2023-02-15T09:03:41.195Z,3.18
2023-02-15T09:10:01.211Z,3.42
2023-02-15T09:16:24.313Z,3.66
2023-02-15T09:38:51.178Z,4.42
2023-02-15T09:45:14.179Z,4.64
2023-02-15T09:51:34.210Z,4.86
2023-02-15T09:57:57.294Z,5.24
2023-02-15T10:04:17.194Z,5.64
2023-02-15T10:10:40.252Z,6
2023-02-15T10:17:00.262Z,6.33
2023-02-15T10:23:23.247Z,6.7
2023-02-15T10:29:43.189Z,6.94
2023-02-15T10:36:06.224Z,7.14
2023-02-15T10:42:26.206Z,7.44
2023-02-15T10:48:49.247Z,7.75
2023-02-15T10:55:09.229Z,8.2
2023-02-15T11:01:32.274Z,8.59
2023-02-15T11:07:52.184Z,8.92
2023-02-15T11:14:15.230Z,9.13
2023-02-15T11:20:35.177Z,9.3
2023-02-15T11:26:58.274Z,9.56
2023-02-15T11:33:18.212Z,9.76
2023-02-15T11:39:41.192Z,10.05
2023-02-15T11:46:01.270Z,10.21
2023-02-15T11:52:24.237Z,10.46
2023-02-15T11:58:44.192Z,10.6
2023-02-15T12:05:07.174Z,10.83
2023-02-15T12:11:27.206Z,10.87
2023-02-15T12:17:50.205Z,11.02
2023-02-15T12:24:10.440Z,11.46
2023-02-15T12:30:34.290Z,11.65
2023-02-15T12:36:54.161Z,11.75
2023-02-15T12:43:17.206Z,11.89
2023-02-15T12:49:37.210Z,11.9
2023-02-15T12:56:00.154Z,12.07
2023-02-15T13:02:20.280Z,12.28
2023-02-15T13:08:43.219Z,12.33
2023-02-15T13:15:03.241Z,12.38
2023-02-15T13:21:26.196Z,12.66
2023-02-15T13:27:46.211Z,12.64
2023-02-15T13:34:09.209Z,12.71
2023-02-15T13:40:29.180Z,12.77
2023-02-15T13:46:52.340Z,12.97
2023-02-15T13:53:12.175Z,12.93
2023-02-15T13:59:35.184Z,12.95
2023-02-15T14:05:55.294Z,13.05
2023-02-15T14:12:18.183Z,13.05
2023-02-15T14:18:38.202Z,12.96
2023-02-15T14:25:01.189Z,12.81
2023-02-15T14:31:21.271Z,12.55
2023-02-15T14:37:44.194Z,12.32
2023-02-15T15:01:27.148Z,11.97
2023-02-15T15:07:47.161Z,11.77
2023-02-15T15:14:10.203Z,11.59
2023-02-15T15:20:30.260Z,11.43
2023-02-15T15:26:53.452Z,11.25
2023-02-15T15:33:13.191Z,11.04
2023-02-15T15:39:36.180Z,10.8
2023-02-15T15:45:56.203Z,10.62
2023-02-15T15:52:19.179Z,10.46
2023-02-15T15:58:39.317Z,10.26
2023-02-15T16:05:02.199Z,9.98
2023-02-15T16:11:22.184Z,9.79
2023-02-15T16:17:45.260Z,9.6
2023-02-15T16:24:05.190Z,9.41
2023-02-15T16:30:28.274Z,9.18
2023-02-15T16:36:48.215Z,8.98
2023-02-15T16:43:11.161Z,8.77
2023-02-15T16:49:31.255Z,8.59
2023-02-15T16:55:54.203Z,8.42
2023-02-15T17:02:17.919Z,8.22
2023-02-15T17:08:37.201Z,8.1
2023-02-15T17:14:57.211Z,7.94
2023-02-15T17:21:20.198Z,7.78
2023-02-15T17:27:40.208Z,7.69
2023-02-15T17:34:03.245Z,7.58
2023-02-15T17:40:23.201Z,7.46
2023-02-15T17:46:46.168Z,7.31
2023-02-15T17:53:06.231Z,7.19
2023-02-15T17:59:29.219Z,7.1
2023-02-15T18:05:49.186Z,7
2023-02-15T18:12:12.226Z,6.91
2023-02-15T18:18:32.211Z,6.79
2023-02-15T18:24:55.189Z,6.72
2023-02-15T18:31:15.321Z,6.64
2023-02-15T18:37:38.160Z,6.55
2023-02-15T18:43:58.191Z,6.46
2023-02-15T18:50:21.303Z,6.37
2023-02-15T18:56:41.188Z,6.27
2023-02-15T19:03:04.162Z,6.21
2023-02-15T19:09:24.306Z,6.14
2023-02-15T19:15:47.263Z,6.09
2023-02-15T19:22:07.216Z,6.06
2023-02-15T19:28:30.212Z,6.03
2023-02-15T19:34:50.192Z,5.99
2023-02-15T19:41:13.301Z,5.94
2023-02-15T19:47:33.198Z,5.87
2023-02-15T19:53:56.160Z,5.8
2023-02-15T20:00:22.010Z,5.71
2023-02-15T20:16:27.094Z,5.53
2023-02-15T20:22:47.192Z,5.47
2023-02-15T20:29:10.158Z,5.4
2023-02-15T20:35:30.218Z,5.32
2023-02-15T20:41:53.225Z,5.22
2023-02-15T20:48:13.228Z,5.17
2023-02-15T20:54:36.229Z,5.15
2023-02-15T21:00:56.179Z,5.07
2023-02-15T21:07:19.196Z,5.03
2023-02-15T21:13:39.218Z,4.98
2023-02-15T21:20:02.265Z,4.9
2023-02-15T21:26:22.295Z,4.8
2023-02-15T21:32:45.270Z,4.72
2023-02-15T21:39:05.232Z,4.69
2023-02-15T21:45:28.190Z,4.7
2023-02-15T21:51:48.354Z,4.69
2023-02-15T21:58:11.272Z,4.66
2023-02-15T22:04:31.210Z,4.64
2023-02-15T22:10:54.250Z,4.62
2023-02-15T22:17:14.363Z,4.53
2023-02-15T22:23:37.458Z,4.47
2023-02-15T22:29:57.260Z,4.42
2023-02-15T22:36:20.204Z,4.3
2023-02-15T22:42:40.187Z,4.21
2023-02-15T22:49:03.188Z,4.13
2023-02-15T22:55:23.201Z,4.06
2023-02-15T23:20:57.189Z,3.75
2023-02-15T23:27:17.148Z,3.66
2023-02-15T23:33:40.182Z,3.57
2023-02-15T23:40:00.228Z,3.51
2023-02-15T23:46:23.324Z,3.45
2023-02-15T23:52:43.166Z,3.38
2023-02-15T23:59:06.240Z,3.35
